| time (UTC) | temp F | wind direction | speed MPH | gust MPH | rain 1hr in | rain 24hr in | rain mn in | humidity % | barometer mb |
| 20260510160042 | 63 | 18 | 1.0 | 7.0 | 0.00 | 0.00 | 0.00 | 50 | 1021.7 |
| 20260510154541 | 63 | 337 | 2.0 | 5.0 | 0.00 | 0.00 | 0.00 | 44 | 1021.7 |
| 20260510153048 | 63 | 20 | 2.0 | 5.0 | 0.00 | 0.00 | 0.00 | 45 | 1021.5 |
| 20260510151542 | 62 | 117 | 2.0 | 6.0 | 0.00 | 0.00 | 0.00 | 43 | 1021.4 |
| 20260510150042 | 60 | 32 | 1.0 | 5.0 | 0.00 | 0.00 | 0.00 | 48 | 1021.3 |
| 20260510144545 | 59 | 46 | 1.0 | 4.0 | 0.00 | 0.00 | 0.00 | 52 | 1021.4 |
| 20260510143043 | 58 | 8 | 1.0 | 4.0 | 0.00 | 0.00 | 0.00 | 51 | 1021.4 |
| 20260510141546 | 59 | 19 | 1.0 | 4.0 | 0.00 | 0.00 | 0.00 | 48 | 1021.6 |
| 20260510140036 | 57 | 18 | 1.0 | 4.0 | 0.00 | 0.00 | 0.00 | 50 | 1021.4 |
| 20260510134534 | 57 | 18 | 1.0 | 4.0 | 0.00 | 0.00 | 0.00 | 52 | 1021.3 |
| 20260510133043 | 56 | 27 | 2.0 | 5.0 | 0.00 | 0.00 | 0.00 | 54 | 1021.1 |
| 20260510131540 | 56 | 300 | 1.0 | 5.0 | 0.00 | 0.00 | 0.00 | 53 | 1020.9 |
| 20260510130047 | 56 | 0 | 1.0 | 5.0 | 0.00 | 0.00 | 0.00 | 54 | 1020.8 |
| 20260510124543 | 56 | 16 | 1.0 | 5.0 | 0.00 | 0.00 | 0.00 | 53 | 1020.4 |
| 20260510123042 | 56 | 15 | 1.0 | 3.0 | 0.00 | 0.00 | 0.00 | 55 | 1020.2 |
| 20260510121542 | 56 | 18 | 2.0 | 4.0 | 0.00 | 0.00 | 0.00 | 55 | 1019.6 |
| 20260510120040 | 55 | 20 | 1.0 | 5.0 | 0.00 | 0.00 | 0.00 | 54 | 1019.2 |
| 20260510114542 | 56 | 15 | 1.0 | 5.0 | 0.00 | 0.00 | 0.00 | 54 | 1019.0 |
| 20260510113039 | 56 | 330 | 2.0 | 6.0 | 0.00 | 0.00 | 0.00 | 53 | 1018.7 |
| 20260510111542 | 56 | 350 | 2.0 | 6.0 | 0.00 | 0.00 | 0.00 | 52 | 1018.4 |
| 20260510110044 | 57 | 25 | 1.0 | 7.0 | 0.00 | 0.00 | 0.00 | 52 | 1018.6 |
| 20260510104542 | 57 | 11 | 2.0 | 4.0 | 0.00 | 0.00 | 0.00 | 51 | 1018.2 |
| 20260510103040 | 57 | 22 | 1.0 | 3.0 | 0.00 | 0.00 | 0.00 | 53 | 1018.1 |
| 20260510101539 | 57 | 15 | 2.0 | 6.0 | 0.00 | 0.00 | 0.00 | 52 | 1017.8 |
| 20260510100034 | 58 | 28 | 2.0 | 5.0 | 0.00 | 0.00 | 0.00 | 52 | 1017.4 |
| 20260510094542 | 59 | 6 | 2.0 | 6.0 | 0.00 | 0.01 | 0.00 | 52 | 1017.3 |
| 20260510093042 | 59 | 0 | 0.0 | 5.0 | 0.00 | 0.01 | 0.00 | 53 | 1017.2 |
| 20260510091541 | 59 | 8 | 2.0 | 5.0 | 0.00 | 0.01 | 0.00 | 53 | 1017.0 |
| 20260510090036 | 60 | 46 | 3.0 | 6.0 | 0.00 | 0.01 | 0.00 | 56 | 1016.7 |
| 20260510084537 | 61 | 333 | 3.0 | 7.0 | 0.00 | 0.01 | 0.00 | 59 | 1016.3 |
| 20260510083053 | 61 | 311 | 3.0 | 7.0 | 0.00 | 0.01 | 0.00 | 60 | 1016.4 |
| 20260510081541 | 61 | 317 | 2.0 | 6.0 | 0.00 | 0.01 | 0.00 | 60 | 1016.1 |
| 20260510080042 | 62 | 20 | 2.0 | 5.0 | 0.00 | 0.01 | 0.00 | 62 | 1015.8 |
| 20260510074539 | 62 | 352 | 1.0 | 5.0 | 0.00 | 0.01 | 0.00 | 64 | 1015.8 |
| 20260510073034 | 60 | 21 | 0.0 | 2.0 | 0.00 | 0.01 | 0.00 | 71 | 1015.6 |
| 20260510071537 | 59 | 0 | 0.0 | 0.0 | 0.00 | 0.01 | 0.00 | 70 | 1015.4 |
| 20260510070045 | 60 | 0 | 0.0 | 1.0 | 0.00 | 0.01 | 0.00 | 69 | 1015.3 |
| 20260510064541 | 61 | 0 | 0.0 | 1.0 | 0.00 | 0.01 | 0.00 | 65 | 1015.1 |
| 20260510063041 | 63 | 0 | 0.0 | 0.0 | 0.00 | 0.01 | 0.00 | 61 | 1014.8 |
| 20260510061536 | 64 | 0 | 0.0 | 1.0 | 0.00 | 0.01 | 0.00 | 60 | 1014.9 |
| 20260510060037 | 64 | 0 | 0.0 | 1.0 | 0.00 | 0.01 | 0.00 | 60 | 1015.1 |
| 20260510054545 | 64 | 0 | 0.0 | 1.0 | 0.00 | 0.01 | 0.00 | 59 | 1014.9 |
| 20260510053042 | 66 | 0 | 0.0 | 1.0 | 0.00 | 0.01 | 0.00 | 56 | 1014.5 |
| 20260510051540 | 66 | 0 | 0.0 | 3.0 | 0.00 | 0.01 | 0.00 | 55 | 1014.4 |
| 20260510050043 | 67 | 0 | 0.0 | 4.0 | 0.00 | 0.01 | 0.00 | 54 | 1013.9 |
| 20260510044542 | 67 | 13 | 1.0 | 6.0 | 0.00 | 0.01 | 0.01 | 54 | 1013.3 |
| 20260510043037 | 67 | 17 | 2.0 | 5.0 | 0.00 | 0.01 | 0.01 | 61 | 1012.8 |
| 20260510041542 | 66 | 12 | 0.0 | 1.0 | 0.00 | 0.01 | 0.01 | 64 | 1012.5 |
| 20260510040045 | 66 | 0 | 0.0 | 0.0 | 0.00 | 0.01 | 0.01 | 65 | 1012.5 |
| 20260510034545 | 66 | 0 | 0.0 | 0.0 | 0.00 | 0.01 | 0.01 | 65 | 1012.3 |
| 20260510033046 | 67 | 0 | 0.0 | 1.0 | 0.00 | 0.01 | 0.01 | 63 | 1012.5 |
| 20260510031536 | 68 | 0 | 0.0 | 2.0 | 0.00 | 0.01 | 0.01 | 62 | 1012.0 |
| 20260510030035 | 68 | 0 | 0.0 | 0.0 | 0.00 | 0.01 | 0.01 | 61 | 1012.4 |
| 20260510024536 | 68 | 0 | 0.0 | 1.0 | 0.00 | 0.01 | 0.01 | 61 | 1011.9 |
| 20260510023042 | 68 | 0 | 0.0 | 1.0 | 0.00 | 0.01 | 0.01 | 60 | 1011.2 |
| 20260510021539 | 68 | 0 | 0.0 | 2.0 | 0.00 | 0.01 | 0.01 | 59 | 1010.9 |
| 20260510020035 | 69 | 0 | 0.0 | 3.0 | 0.00 | 0.01 | 0.01 | 57 | 1010.5 |
| 20260510014534 | 70 | 0 | 0.0 | 4.0 | 0.00 | 0.01 | 0.01 | 57 | 1010.4 |
| 20260510013034 | 70 | 352 | 0.0 | 4.0 | 0.00 | 0.01 | 0.01 | 56 | 1010.1 |
| 20260510011534 | 70 | 0 | 0.0 | 1.0 | 0.00 | 0.01 | 0.01 | 56 | 1009.9 |
| 20260510010041 | 71 | 0 | 0.0 | 2.0 | 0.00 | 0.01 | 0.01 | 55 | 1009.7 |
| 20260510004536 | 73 | 18 | 1.0 | 4.0 | 0.00 | 0.01 | 0.01 | 52 | 1009.5 |
| 20260510003035 | 74 | 345 | 0.0 | 3.0 | 0.00 | 0.01 | 0.01 | 52 | 1009.2 |
| 20260510001541 | 75 | 17 | 1.0 | 4.0 | 0.00 | 0.01 | 0.01 | 51 | 1008.9 |
| 20260510000044 | 75 | 304 | 2.0 | 6.0 | 0.00 | 0.01 | 0.01 | 48 | 1008.9 |
| 20260509234544 | 76 | 307 | 2.0 | 6.0 | 0.00 | 0.01 | 0.01 | 46 | 1008.8 |
| 20260509233040 | 80 | 296 | 0.0 | 5.0 | 0.00 | 0.01 | 0.01 | 41 | 1008.5 |
| 20260509231541 | 80 | 269 | 0.0 | 6.0 | 0.00 | 0.01 | 0.01 | 38 | 1008.3 |
| 20260509230050 | 81 | 294 | 0.0 | 5.0 | 0.00 | 0.01 | 0.01 | 39 | 1008.1 |
| 20260509224552 | 82 | 290 | 2.0 | 6.0 | 0.00 | 0.01 | 0.01 | 36 | 1008.0 |
| 20260509223047 | 82 | 290 | 1.0 | 8.0 | 0.00 | 0.01 | 0.01 | 37 | 1007.9 |
| 20260509221537 | 83 | 311 | 2.0 | 6.0 | 0.00 | 0.01 | 0.01 | 35 | 1007.8 |
| 20260509220036 | 83 | 316 | 2.0 | 6.0 | 0.00 | 0.01 | 0.01 | 37 | 1007.7 |
| 20260509214543 | 84 | 329 | 1.0 | 5.0 | 0.00 | 0.02 | 0.01 | 39 | 1007.8 |
| 20260509213043 | 85 | 214 | 2.0 | 6.0 | 0.00 | 0.02 | 0.01 | 36 | 1007.7 |
| 20260509211541 | 84 | 346 | 1.0 | 9.0 | 0.00 | 0.02 | 0.01 | 39 | 1007.7 |
| 20260509210047 | 85 | 311 | 2.0 | 7.0 | 0.00 | 0.02 | 0.01 | 37 | 1007.7 |
| 20260509204536 | 85 | 176 | 1.0 | 6.0 | 0.00 | 0.02 | 0.01 | 38 | 1007.9 |
| 20260509203048 | 85 | 39 | 3.0 | 7.0 | 0.00 | 0.02 | 0.01 | 38 | 1008.1 |
| 20260509201543 | 86 | 156 | 1.0 | 5.0 | 0.00 | 0.02 | 0.01 | 40 | 1008.2 |
| 20260509200041 | 86 | 21 | 1.0 | 5.0 | 0.00 | 0.02 | 0.01 | 38 | 1008.2 |
| 20260509194541 | 85 | 1 | 0.0 | 7.0 | 0.00 | 0.02 | 0.01 | 45 | 1008.5 |
| 20260509193040 | 85 | 229 | 2.0 | 7.0 | 0.00 | 0.02 | 0.01 | 40 | 1008.5 |
| 20260509191537 | 84 | 326 | 3.0 | 11.0 | 0.00 | 0.02 | 0.01 | 40 | 1008.7 |
| 20260509190034 | 85 | 25 | 2.0 | 8.0 | 0.00 | 0.02 | 0.01 | 42 | 1008.8 |
| 20260509184547 | 84 | 142 | 2.0 | 8.0 | 0.00 | 0.02 | 0.01 | 46 | 1008.9 |
| 20260509183042 | 84 | 145 | 2.0 | 6.0 | 0.00 | 0.02 | 0.01 | 44 | 1008.9 |
| 20260509181600 | 83 | 89 | 1.0 | 4.0 | 0.00 | 0.02 | 0.01 | 48 | 1009.1 |
| 20260509180107 | 83 | 191 | 1.0 | 4.0 | 0.00 | 0.02 | 0.01 | 48 | 1009.1 |
| 20260509174535 | 82 | 192 | 1.0 | 5.0 | 0.00 | 0.02 | 0.01 | 50 | 1009.3 |
| 20260509173042 | 81 | 60 | 1.0 | 4.0 | 0.00 | 0.02 | 0.01 | 47 | 1009.5 |
| 20260509171549 | 81 | 170 | 1.0 | 6.0 | 0.00 | 0.02 | 0.01 | 50 | 1009.7 |
| 20260509170049 | 80 | 134 | 1.0 | 5.0 | 0.00 | 0.02 | 0.01 | 47 | 1009.8 |
| 20260509164540 | 79 | 207 | 1.0 | 8.0 | 0.00 | 0.02 | 0.01 | 50 | 1009.8 |
| 20260509163038 | 78 | 356 | 1.0 | 5.0 | 0.00 | 0.02 | 0.01 | 52 | 1009.9 |
| 20260509161555 | 77 | 125 | 0.0 | 5.0 | 0.00 | 0.02 | 0.01 | 52 | 1009.8 |